sensor_id;sensor_type;location;lat;lon;timestamp;P1;durP1;ratioP1;P2;durP2;ratioP2
12425;SDS011;6277;49.824;9.562;2023-08-06T00:01:38;2.65;;;1.50;;
12425;SDS011;6277;49.824;9.562;2023-08-06T00:04:04;2.05;;;1.50;;
12425;SDS011;6277;49.824;9.562;2023-08-06T00:06:29;2.85;;;1.55;;
12425;SDS011;6277;49.824;9.562;2023-08-06T00:08:55;2.25;;;1.40;;
12425;SDS011;6277;49.824;9.562;2023-08-06T00:11:20;2.38;;;1.40;;
12425;SDS011;6277;49.824;9.562;2023-08-06T00:13:46;1.70;;;1.38;;
12425;SDS011;6277;49.824;9.562;2023-08-06T00:16:12;1.65;;;1.27;;
12425;SDS011;6277;49.824;9.562;2023-08-06T00:18:38;2.70;;;1.40;;
12425;SDS011;6277;49.824;9.562;2023-08-06T00:21:04;2.33;;;1.40;;
12425;SDS011;6277;49.824;9.562;2023-08-06T00:23:29;2.25;;;1.30;;
12425;SDS011;6277;49.824;9.562;2023-08-06T00:25:55;3.47;;;1.40;;
12425;SDS011;6277;49.824;9.562;2023-08-06T00:28:20;1.58;;;1.05;;
12425;SDS011;6277;49.824;9.562;2023-08-06T00:30:46;2.33;;;1.10;;
12425;SDS011;6277;49.824;9.562;2023-08-06T00:33:17;1.17;;;0.95;;
12425;SDS011;6277;49.824;9.562;2023-08-06T00:35:42;2.33;;;1.25;;
12425;SDS011;6277;49.824;9.562;2023-08-06T00:38:07;1.63;;;1.15;;
12425;SDS011;6277;49.824;9.562;2023-08-06T00:40:33;1.15;;;1.05;;
12425;SDS011;6277;49.824;9.562;2023-08-06T00:42:59;1.75;;;1.02;;
12425;SDS011;6277;49.824;9.562;2023-08-06T00:45:24;1.98;;;1.10;;
12425;SDS011;6277;49.824;9.562;2023-08-06T00:47:50;1.20;;;1.10;;
12425;SDS011;6277;49.824;9.562;2023-08-06T00:50:17;2.70;;;1.50;;
12425;SDS011;6277;49.824;9.562;2023-08-06T00:52:42;1.48;;;1.08;;
12425;SDS011;6277;49.824;9.562;2023-08-06T00:55:08;1.92;;;1.10;;
12425;SDS011;6277;49.824;9.562;2023-08-06T00:57:34;2.28;;;1.17;;
12425;SDS011;6277;49.824;9.562;2023-08-06T01:00:00;1.55;;;0.90;;
12425;SDS011;6277;49.824;9.562;2023-08-06T01:02:26;2.35;;;1.20;;
12425;SDS011;6277;49.824;9.562;2023-08-06T01:04:52;1.55;;;1.20;;
12425;SDS011;6277;49.824;9.562;2023-08-06T01:15:15;2.58;;;1.27;;
12425;SDS011;6277;49.824;9.562;2023-08-06T01:17:45;1.33;;;1.13;;
12425;SDS011;6277;49.824;9.562;2023-08-06T01:20:12;1.88;;;1.38;;
12425;SDS011;6277;49.824;9.562;2023-08-06T01:22:37;1.10;;;1.00;;
12425;SDS011;6277;49.824;9.562;2023-08-06T01:25:03;1.58;;;1.20;;
12425;SDS011;6277;49.824;9.562;2023-08-06T01:27:33;1.52;;;1.20;;
12425;SDS011;6277;49.824;9.562;2023-08-06T01:30:15;1.80;;;0.95;;
12425;SDS011;6277;49.824;9.562;2023-08-06T01:32:46;1.20;;;1.10;;
12425;SDS011;6277;49.824;9.562;2023-08-06T01:35:15;1.17;;;1.08;;
12425;SDS011;6277;49.824;9.562;2023-08-06T01:37:42;2.42;;;1.13;;
12425;SDS011;6277;49.824;9.562;2023-08-06T01:40:11;1.30;;;1.20;;
12425;SDS011;6277;49.824;9.562;2023-08-06T01:42:38;1.50;;;1.10;;
12425;SDS011;6277;49.824;9.562;2023-08-06T01:45:04;3.40;;;1.35;;
12425;SDS011;6277;49.824;9.562;2023-08-06T01:47:31;1.38;;;1.20;;
12425;SDS011;6277;49.824;9.562;2023-08-06T01:49:56;1.67;;;1.27;;
12425;SDS011;6277;49.824;9.562;2023-08-06T01:52:22;1.67;;;1.10;;
12425;SDS011;6277;49.824;9.562;2023-08-06T01:54:47;2.95;;;1.10;;
12425;SDS011;6277;49.824;9.562;2023-08-06T01:57:13;2.00;;;1.38;;
12425;SDS011;6277;49.824;9.562;2023-08-06T01:59:38;1.52;;;1.10;;
12425;SDS011;6277;49.824;9.562;2023-08-06T02:02:04;1.58;;;1.23;;
12425;SDS011;6277;49.824;9.562;2023-08-06T02:04:29;1.48;;;1.35;;
12425;SDS011;6277;49.824;9.562;2023-08-06T02:06:55;1.35;;;1.23;;
12425;SDS011;6277;49.824;9.562;2023-08-06T02:09:20;3.22;;;1.38;;
12425;SDS011;6277;49.824;9.562;2023-08-06T02:11:46;1.63;;;1.20;;
12425;SDS011;6277;49.824;9.562;2023-08-06T02:14:11;4.82;;;1.77;;
12425;SDS011;6277;49.824;9.562;2023-08-06T02:16:37;1.65;;;1.30;;
12425;SDS011;6277;49.824;9.562;2023-08-06T02:19:02;2.22;;;1.25;;
12425;SDS011;6277;49.824;9.562;2023-08-06T02:21:28;2.65;;;1.50;;
12425;SDS011;6277;49.824;9.562;2023-08-06T02:23:54;2.67;;;1.40;;
12425;SDS011;6277;49.824;9.562;2023-08-06T02:26:20;2.50;;;1.20;;
12425;SDS011;6277;49.824;9.562;2023-08-06T02:28:45;1.48;;;1.02;;
12425;SDS011;6277;49.824;9.562;2023-08-06T02:31:11;3.42;;;1.30;;
12425;SDS011;6277;49.824;9.562;2023-08-06T02:33:36;1.52;;;1.30;;
12425;SDS011;6277;49.824;9.562;2023-08-06T02:36:02;1.70;;;1.10;;
12425;SDS011;6277;49.824;9.562;2023-08-06T02:38:29;1.30;;;1.02;;
12425;SDS011;6277;49.824;9.562;2023-08-06T02:40:55;3.38;;;1.38;;
12425;SDS011;6277;49.824;9.562;2023-08-06T02:43:20;2.10;;;1.55;;
12425;SDS011;6277;49.824;9.562;2023-08-06T02:45:46;1.25;;;1.10;;
12425;SDS011;6277;49.824;9.562;2023-08-06T02:48:11;1.35;;;1.25;;
12425;SDS011;6277;49.824;9.562;2023-08-06T02:50:38;1.55;;;1.23;;
12425;SDS011;6277;49.824;9.562;2023-08-06T02:53:04;1.10;;;1.00;;
12425;SDS011;6277;49.824;9.562;2023-08-06T02:55:30;1.10;;;1.00;;
12425;SDS011;6277;49.824;9.562;2023-08-06T02:57:56;1.52;;;1.10;;
12425;SDS011;6277;49.824;9.562;2023-08-06T03:00:22;1.83;;;1.13;;
12425;SDS011;6277;49.824;9.562;2023-08-06T03:02:47;2.40;;;1.20;;
12425;SDS011;6277;49.824;9.562;2023-08-06T03:05:13;1.83;;;1.23;;
12425;SDS011;6277;49.824;9.562;2023-08-06T03:07:38;1.65;;;1.10;;
12425;SDS011;6277;49.824;9.562;2023-08-06T03:10:04;1.58;;;1.10;;
12425;SDS011;6277;49.824;9.562;2023-08-06T03:12:29;1.50;;;1.17;;
12425;SDS011;6277;49.824;9.562;2023-08-06T03:14:55;1.45;;;1.10;;
12425;SDS011;6277;49.824;9.562;2023-08-06T03:17:20;1.40;;;1.20;;
12425;SDS011;6277;49.824;9.562;2023-08-06T03:19:46;3.08;;;1.17;;
12425;SDS011;6277;49.824;9.562;2023-08-06T03:22:11;1.40;;;1.15;;
12425;SDS011;6277;49.824;9.562;2023-08-06T03:24:37;1.55;;;1.20;;
12425;SDS011;6277;49.824;9.562;2023-08-06T03:27:03;1.33;;;1.23;;
12425;SDS011;6277;49.824;9.562;2023-08-06T03:29:29;1.85;;;1.17;;
12425;SDS011;6277;49.824;9.562;2023-08-06T03:31:54;3.83;;;1.45;;
12425;SDS011;6277;49.824;9.562;2023-08-06T03:34:20;1.60;;;1.10;;
12425;SDS011;6277;49.824;9.562;2023-08-06T03:36:45;2.90;;;1.48;;
12425;SDS011;6277;49.824;9.562;2023-08-06T03:39:11;1.40;;;1.20;;
12425;SDS011;6277;49.824;9.562;2023-08-06T03:41:36;1.40;;;1.20;;
12425;SDS011;6277;49.824;9.562;2023-08-06T03:44:02;1.45;;;1.13;;
12425;SDS011;6277;49.824;9.562;2023-08-06T03:46:28;1.23;;;1.13;;
12425;SDS011;6277;49.824;9.562;2023-08-06T03:48:54;1.77;;;1.17;;
12425;SDS011;6277;49.824;9.562;2023-08-06T03:51:21;1.40;;;1.20;;
12425;SDS011;6277;49.824;9.562;2023-08-06T03:53:47;2.05;;;0.98;;
12425;SDS011;6277;49.824;9.562;2023-08-06T03:56:12;2.63;;;1.58;;
12425;SDS011;6277;49.824;9.562;2023-08-06T03:58:38;1.40;;;1.00;;
12425;SDS011;6277;49.824;9.562;2023-08-06T04:01:03;1.35;;;1.25;;
12425;SDS011;6277;49.824;9.562;2023-08-06T04:03:29;2.60;;;1.20;;
12425;SDS011;6277;49.824;9.562;2023-08-06T04:05:55;1.30;;;1.17;;
12425;SDS011;6277;49.824;9.562;2023-08-06T04:08:20;1.35;;;1.10;;
12425;SDS011;6277;49.824;9.562;2023-08-06T04:10:49;2.65;;;1.27;;
12425;SDS011;6277;49.824;9.562;2023-08-06T04:13:16;1.58;;;1.10;;
12425;SDS011;6277;49.824;9.562;2023-08-06T04:15:41;2.35;;;1.52;;
12425;SDS011;6277;49.824;9.562;2023-08-06T04:18:07;2.08;;;1.10;;
12425;SDS011;6277;49.824;9.562;2023-08-06T04:20:32;2.42;;;1.30;;
12425;SDS011;6277;49.824;9.562;2023-08-06T04:22:58;1.45;;;1.02;;
12425;SDS011;6277;49.824;9.562;2023-08-06T04:25:23;1.80;;;1.10;;
12425;SDS011;6277;49.824;9.562;2023-08-06T04:27:50;2.65;;;1.50;;
12425;SDS011;6277;49.824;9.562;2023-08-06T04:30:15;1.20;;;1.10;;
12425;SDS011;6277;49.824;9.562;2023-08-06T04:32:41;1.10;;;1.00;;
12425;SDS011;6277;49.824;9.562;2023-08-06T04:35:07;1.45;;;1.02;;
12425;SDS011;6277;49.824;9.562;2023-08-06T04:37:32;1.30;;;1.17;;
12425;SDS011;6277;49.824;9.562;2023-08-06T04:39:58;1.83;;;1.02;;
12425;SDS011;6277;49.824;9.562;2023-08-06T04:42:23;1.42;;;1.02;;
12425;SDS011;6277;49.824;9.562;2023-08-06T04:44:49;1.67;;;1.10;;
12425;SDS011;6277;49.824;9.562;2023-08-06T04:47:15;1.27;;;1.00;;
12425;SDS011;6277;49.824;9.562;2023-08-06T04:49:40;1.40;;;1.20;;
12425;SDS011;6277;49.824;9.562;2023-08-06T04:52:06;2.13;;;1.10;;
12425;SDS011;6277;49.824;9.562;2023-08-06T04:54:32;1.92;;;1.02;;
12425;SDS011;6277;49.824;9.562;2023-08-06T04:56:57;1.17;;;1.08;;
12425;SDS011;6277;49.824;9.562;2023-08-06T04:59:23;1.50;;;1.15;;
12425;SDS011;6277;49.824;9.562;2023-08-06T05:01:48;1.38;;;1.20;;
12425;SDS011;6277;49.824;9.562;2023-08-06T05:04:14;1.75;;;1.10;;
12425;SDS011;6277;49.824;9.562;2023-08-06T05:06:39;1.50;;;1.10;;
12425;SDS011;6277;49.824;9.562;2023-08-06T05:09:06;1.65;;;1.35;;
12425;SDS011;6277;49.824;9.562;2023-08-06T05:11:31;1.35;;;1.20;;
12425;SDS011;6277;49.824;9.562;2023-08-06T05:13:57;0.95;;;0.82;;
12425;SDS011;6277;49.824;9.562;2023-08-06T05:16:23;1.73;;;1.30;;
12425;SDS011;6277;49.824;9.562;2023-08-06T05:18:49;2.05;;;1.13;;
12425;SDS011;6277;49.824;9.562;2023-08-06T05:21:14;1.70;;;1.02;;
12425;SDS011;6277;49.824;9.562;2023-08-06T05:23:41;3.42;;;1.20;;
12425;SDS011;6277;49.824;9.562;2023-08-06T05:26:07;1.83;;;1.10;;
12425;SDS011;6277;49.824;9.562;2023-08-06T05:28:33;1.35;;;0.95;;
12425;SDS011;6277;49.824;9.562;2023-08-06T05:30:59;2.03;;;1.25;;
12425;SDS011;6277;49.824;9.562;2023-08-06T05:33:28;5.50;;;1.05;;
12425;SDS011;6277;49.824;9.562;2023-08-06T05:35:53;1.20;;;1.10;;
12425;SDS011;6277;49.824;9.562;2023-08-06T05:38:19;1.05;;;0.90;;
12425;SDS011;6277;49.824;9.562;2023-08-06T05:40:45;1.48;;;1.00;;
12425;SDS011;6277;49.824;9.562;2023-08-06T05:43:10;1.92;;;1.20;;
12425;SDS011;6277;49.824;9.562;2023-08-06T05:45:36;1.63;;;0.88;;
12425;SDS011;6277;49.824;9.562;2023-08-06T05:48:01;5.28;;;1.58;;
12425;SDS011;6277;49.824;9.562;2023-08-06T05:50:27;1.48;;;0.90;;
12425;SDS011;6277;49.824;9.562;2023-08-06T05:52:52;0.93;;;0.60;;
12425;SDS011;6277;49.824;9.562;2023-08-06T05:55:18;1.48;;;0.63;;
12425;SDS011;6277;49.824;9.562;2023-08-06T05:57:45;1.23;;;0.60;;
12425;SDS011;6277;49.824;9.562;2023-08-06T06:00:11;1.45;;;0.80;;
12425;SDS011;6277;49.824;9.562;2023-08-06T06:02:36;1.67;;;0.90;;
12425;SDS011;6277;49.824;9.562;2023-08-06T06:05:02;2.03;;;0.90;;
12425;SDS011;6277;49.824;9.562;2023-08-06T06:07:27;1.52;;;0.68;;
12425;SDS011;6277;49.824;9.562;2023-08-06T06:09:53;1.70;;;0.70;;
12425;SDS011;6277;49.824;9.562;2023-08-06T06:12:19;2.33;;;0.80;;
12425;SDS011;6277;49.824;9.562;2023-08-06T06:14:44;1.40;;;0.80;;
12425;SDS011;6277;49.824;9.562;2023-08-06T06:17:10;2.28;;;0.80;;
12425;SDS011;6277;49.824;9.562;2023-08-06T06:19:36;1.23;;;0.75;;
12425;SDS011;6277;49.824;9.562;2023-08-06T06:22:01;1.08;;;0.73;;
12425;SDS011;6277;49.824;9.562;2023-08-06T06:24:27;1.42;;;0.80;;
12425;SDS011;6277;49.824;9.562;2023-08-06T06:26:52;1.80;;;0.82;;
12425;SDS011;6277;49.824;9.562;2023-08-06T06:29:18;1.08;;;0.70;;
12425;SDS011;6277;49.824;9.562;2023-08-06T06:31:43;1.13;;;0.82;;
12425;SDS011;6277;49.824;9.562;2023-08-06T06:34:09;1.90;;;0.93;;
12425;SDS011;6277;49.824;9.562;2023-08-06T06:36:34;1.40;;;0.80;;
12425;SDS011;6277;49.824;9.562;2023-08-06T06:39:00;2.15;;;0.90;;
12425;SDS011;6277;49.824;9.562;2023-08-06T06:41:26;1.52;;;0.88;;
12425;SDS011;6277;49.824;9.562;2023-08-06T06:43:51;1.65;;;0.73;;
12425;SDS011;6277;49.824;9.562;2023-08-06T06:46:17;2.05;;;0.70;;
12425;SDS011;6277;49.824;9.562;2023-08-06T06:48:42;1.15;;;0.60;;
12425;SDS011;6277;49.824;9.562;2023-08-06T06:51:08;0.73;;;0.50;;
12425;SDS011;6277;49.824;9.562;2023-08-06T06:53:33;1.50;;;0.60;;
12425;SDS011;6277;49.824;9.562;2023-08-06T06:56:02;1.13;;;0.50;;
12425;SDS011;6277;49.824;9.562;2023-08-06T06:58:29;0.73;;;0.40;;
12425;SDS011;6277;49.824;9.562;2023-08-06T07:00:55;0.80;;;0.45;;
12425;SDS011;6277;49.824;9.562;2023-08-06T07:03:21;1.35;;;0.40;;
12425;SDS011;6277;49.824;9.562;2023-08-06T07:05:46;0.63;;;0.30;;
12425;SDS011;6277;49.824;9.562;2023-08-06T07:08:12;0.77;;;0.30;;
12425;SDS011;6277;49.824;9.562;2023-08-06T07:10:38;2.13;;;0.63;;
12425;SDS011;6277;49.824;9.562;2023-08-06T07:13:05;0.38;;;0.20;;
12425;SDS011;6277;49.824;9.562;2023-08-06T07:15:31;1.20;;;0.20;;
12425;SDS011;6277;49.824;9.562;2023-08-06T07:17:57;0.55;;;0.20;;
12425;SDS011;6277;49.824;9.562;2023-08-06T07:20:22;0.20;;;0.20;;
12425;SDS011;6277;49.824;9.562;2023-08-06T07:22:48;0.17;;;0.10;;
12425;SDS011;6277;49.824;9.562;2023-08-06T07:25:14;0.20;;;0.10;;
12425;SDS011;6277;49.824;9.562;2023-08-06T07:27:40;0.20;;;0.10;;
12425;SDS011;6277;49.824;9.562;2023-08-06T07:30:06;0.13;;;0.10;;
12425;SDS011;6277;49.824;9.562;2023-08-06T07:32:32;0.15;;;0.15;;
12425;SDS011;6277;49.824;9.562;2023-08-06T07:34:58;0.30;;;0.10;;
12425;SDS011;6277;49.824;9.562;2023-08-06T07:37:25;0.20;;;0.00;;
12425;SDS011;6277;49.824;9.562;2023-08-06T07:39:54;0.00;;;0.00;;
12425;SDS011;6277;49.824;9.562;2023-08-06T07:42:20;0.30;;;0.20;;
12425;SDS011;6277;49.824;9.562;2023-08-06T07:44:53;0.13;;;0.10;;
12425;SDS011;6277;49.824;9.562;2023-08-06T07:47:20;0.00;;;0.00;;
12425;SDS011;6277;49.824;9.562;2023-08-06T07:49:46;0.25;;;0.10;;
12425;SDS011;6277;49.824;9.562;2023-08-06T07:52:11;0.10;;;0.05;;
12425;SDS011;6277;49.824;9.562;2023-08-06T07:54:37;0.30;;;0.10;;
12425;SDS011;6277;49.824;9.562;2023-08-06T07:57:02;0.28;;;0.10;;
12425;SDS011;6277;49.824;9.562;2023-08-06T07:59:28;0.10;;;0.10;;
12425;SDS011;6277;49.824;9.562;2023-08-06T08:01:54;0.13;;;0.00;;
12425;SDS011;6277;49.824;9.562;2023-08-06T08:04:19;0.40;;;0.10;;
12425;SDS011;6277;49.824;9.562;2023-08-06T08:06:46;0.10;;;0.03;;
12425;SDS011;6277;49.824;9.562;2023-08-06T08:09:12;0.32;;;0.03;;
12425;SDS011;6277;49.824;9.562;2023-08-06T08:11:38;0.55;;;0.10;;
12425;SDS011;6277;49.824;9.562;2023-08-06T08:14:04;0.15;;;0.05;;
12425;SDS011;6277;49.824;9.562;2023-08-06T08:16:30;0.22;;;0.10;;
12425;SDS011;6277;49.824;9.562;2023-08-06T08:18:55;1.38;;;0.10;;
12425;SDS011;6277;49.824;9.562;2023-08-06T08:21:21;0.17;;;0.03;;
12425;SDS011;6277;49.824;9.562;2023-08-06T08:23:49;0.47;;;0.10;;
12425;SDS011;6277;49.824;9.562;2023-08-06T08:26:15;0.45;;;0.10;;
12425;SDS011;6277;49.824;9.562;2023-08-06T08:28:40;0.43;;;0.20;;
12425;SDS011;6277;49.824;9.562;2023-08-06T08:31:09;1.08;;;0.10;;
12425;SDS011;6277;49.824;9.562;2023-08-06T08:33:36;0.13;;;0.00;;
12425;SDS011;6277;49.824;9.562;2023-08-06T08:36:02;0.30;;;0.00;;
12425;SDS011;6277;49.824;9.562;2023-08-06T08:38:28;0.10;;;0.10;;
12425;SDS011;6277;49.824;9.562;2023-08-06T08:40:54;0.20;;;0.10;;
12425;SDS011;6277;49.824;9.562;2023-08-06T08:43:23;0.13;;;0.10;;
12425;SDS011;6277;49.824;9.562;2023-08-06T08:45:52;0.05;;;0.00;;
12425;SDS011;6277;49.824;9.562;2023-08-06T08:48:23;0.00;;;0.00;;
12425;SDS011;6277;49.824;9.562;2023-08-06T08:50:50;0.30;;;0.10;;
12425;SDS011;6277;49.824;9.562;2023-08-06T08:53:16;0.17;;;0.10;;
12425;SDS011;6277;49.824;9.562;2023-08-06T08:55:43;0.28;;;0.20;;
12425;SDS011;6277;49.824;9.562;2023-08-06T08:58:11;0.85;;;0.10;;
12425;SDS011;6277;49.824;9.562;2023-08-06T09:00:36;0.08;;;0.08;;
12425;SDS011;6277;49.824;9.562;2023-08-06T09:03:03;0.20;;;0.10;;
12425;SDS011;6277;49.824;9.562;2023-08-06T09:05:31;0.10;;;0.05;;
12425;SDS011;6277;49.824;9.562;2023-08-06T09:08:04;0.35;;;0.05;;
12425;SDS011;6277;49.824;9.562;2023-08-06T09:10:30;0.00;;;0.00;;
12425;SDS011;6277;49.824;9.562;2023-08-06T09:12:56;0.45;;;0.00;;
12425;SDS011;6277;49.824;9.562;2023-08-06T09:15:26;0.00;;;0.00;;
12425;SDS011;6277;49.824;9.562;2023-08-06T09:17:52;0.43;;;0.10;;
12425;SDS011;6277;49.824;9.562;2023-08-06T09:20:19;0.40;;;0.25;;
12425;SDS011;6277;49.824;9.562;2023-08-06T09:22:45;0.52;;;0.10;;
12425;SDS011;6277;49.824;9.562;2023-08-06T09:25:13;0.40;;;0.10;;
12425;SDS011;6277;49.824;9.562;2023-08-06T09:27:48;0.30;;;0.00;;
12425;SDS011;6277;49.824;9.562;2023-08-06T09:30:28;0.00;;;0.00;;
12425;SDS011;6277;49.824;9.562;2023-08-06T09:32:55;0.50;;;0.10;;
12425;SDS011;6277;49.824;9.562;2023-08-06T09:35:21;0.30;;;0.10;;
12425;SDS011;6277;49.824;9.562;2023-08-06T09:37:46;0.10;;;0.10;;
12425;SDS011;6277;49.824;9.562;2023-08-06T09:40:28;0.05;;;0.00;;
12425;SDS011;6277;49.824;9.562;2023-08-06T09:42:55;0.40;;;0.00;;
12425;SDS011;6277;49.824;9.562;2023-08-06T09:45:22;0.20;;;0.00;;
12425;SDS011;6277;49.824;9.562;2023-08-06T09:47:49;0.38;;;0.10;;
12425;SDS011;6277;49.824;9.562;2023-08-06T09:50:16;0.10;;;0.10;;
12425;SDS011;6277;49.824;9.562;2023-08-06T09:52:43;0.20;;;0.10;;
12425;SDS011;6277;49.824;9.562;2023-08-06T09:55:10;0.80;;;0.10;;
12425;SDS011;6277;49.824;9.562;2023-08-06T09:57:37;0.00;;;0.00;;
12425;SDS011;6277;49.824;9.562;2023-08-06T10:00:04;0.82;;;0.30;;
12425;SDS011;6277;49.824;9.562;2023-08-06T10:02:30;0.28;;;0.10;;
12425;SDS011;6277;49.824;9.562;2023-08-06T10:04:58;0.20;;;0.10;;
12425;SDS011;6277;49.824;9.562;2023-08-06T10:07:24;0.03;;;0.03;;
12425;SDS011;6277;49.824;9.562;2023-08-06T10:09:50;0.10;;;0.10;;
12425;SDS011;6277;49.824;9.562;2023-08-06T10:12:15;0.22;;;0.10;;
12425;SDS011;6277;49.824;9.562;2023-08-06T10:14:43;0.10;;;0.10;;
12425;SDS011;6277;49.824;9.562;2023-08-06T10:17:10;0.00;;;0.00;;
12425;SDS011;6277;49.824;9.562;2023-08-06T10:19:36;0.10;;;0.10;;
12425;SDS011;6277;49.824;9.562;2023-08-06T10:28:07;0.10;;;0.10;;
12425;SDS011;6277;49.824;9.562;2023-08-06T10:32:58;0.13;;;0.10;;
12425;SDS011;6277;49.824;9.562;2023-08-06T10:35:31;0.10;;;0.10;;
12425;SDS011;6277;49.824;9.562;2023-08-06T10:38:09;0.10;;;0.10;;
12425;SDS011;6277;49.824;9.562;2023-08-06T10:40:36;0.22;;;0.10;;
12425;SDS011;6277;49.824;9.562;2023-08-06T10:43:04;0.15;;;0.10;;
12425;SDS011;6277;49.824;9.562;2023-08-06T10:45:36;0.13;;;0.10;;
12425;SDS011;6277;49.824;9.562;2023-08-06T10:48:03;0.10;;;0.10;;
12425;SDS011;6277;49.824;9.562;2023-08-06T10:50:29;0.20;;;0.13;;
12425;SDS011;6277;49.824;9.562;2023-08-06T10:52:56;0.10;;;0.10;;
12425;SDS011;6277;49.824;9.562;2023-08-06T10:55:23;1.08;;;0.10;;
12425;SDS011;6277;49.824;9.562;2023-08-06T10:57:50;0.93;;;0.22;;
12425;SDS011;6277;49.824;9.562;2023-08-06T11:00:16;0.20;;;0.20;;
12425;SDS011;6277;49.824;9.562;2023-08-06T11:02:41;0.20;;;0.10;;
12425;SDS011;6277;49.824;9.562;2023-08-06T11:05:07;0.17;;;0.10;;
12425;SDS011;6277;49.824;9.562;2023-08-06T11:07:37;0.10;;;0.10;;
12425;SDS011;6277;49.824;9.562;2023-08-06T11:12:28;0.20;;;0.10;;
12425;SDS011;6277;49.824;9.562;2023-08-06T11:14:54;0.10;;;0.10;;
12425;SDS011;6277;49.824;9.562;2023-08-06T11:17:20;1.75;;;0.10;;
12425;SDS011;6277;49.824;9.562;2023-08-06T11:19:46;0.20;;;0.15;;
12425;SDS011;6277;49.824;9.562;2023-08-06T11:22:12;0.10;;;0.10;;
12425;SDS011;6277;49.824;9.562;2023-08-06T11:24:39;0.10;;;0.10;;
12425;SDS011;6277;49.824;9.562;2023-08-06T11:27:11;0.10;;;0.10;;
12425;SDS011;6277;49.824;9.562;2023-08-06T11:29:38;0.20;;;0.10;;
12425;SDS011;6277;49.824;9.562;2023-08-06T11:32:04;0.00;;;0.00;;
12425;SDS011;6277;49.824;9.562;2023-08-06T11:34:30;0.90;;;0.10;;
12425;SDS011;6277;49.824;9.562;2023-08-06T11:36:56;0.10;;;0.10;;
12425;SDS011;6277;49.824;9.562;2023-08-06T11:39:22;0.10;;;0.10;;
12425;SDS011;6277;49.824;9.562;2023-08-06T11:41:48;0.00;;;0.00;;
12425;SDS011;6277;49.824;9.562;2023-08-06T11:44:14;0.10;;;0.10;;
12425;SDS011;6277;49.824;9.562;2023-08-06T11:46:52;0.20;;;0.10;;
12425;SDS011;6277;49.824;9.562;2023-08-06T11:49:21;0.65;;;0.10;;
12425;SDS011;6277;49.824;9.562;2023-08-06T11:54:48;0.35;;;0.10;;
12425;SDS011;6277;49.824;9.562;2023-08-06T11:59:57;1.45;;;0.20;;
12425;SDS011;6277;49.824;9.562;2023-08-06T12:02:26;0.45;;;0.00;;
12425;SDS011;6277;49.824;9.562;2023-08-06T12:04:58;0.30;;;0.10;;
12425;SDS011;6277;49.824;9.562;2023-08-06T12:07:36;0.10;;;0.00;;
12425;SDS011;6277;49.824;9.562;2023-08-06T12:10:04;0.00;;;0.00;;
12425;SDS011;6277;49.824;9.562;2023-08-06T12:12:30;0.17;;;0.08;;
12425;SDS011;6277;49.824;9.562;2023-08-06T12:14:56;2.38;;;0.00;;
12425;SDS011;6277;49.824;9.562;2023-08-06T12:17:22;0.10;;;0.10;;
12425;SDS011;6277;49.824;9.562;2023-08-06T12:19:49;0.45;;;0.00;;
12425;SDS011;6277;49.824;9.562;2023-08-06T12:22:14;0.00;;;0.00;;
12425;SDS011;6277;49.824;9.562;2023-08-06T12:24:41;0.00;;;0.00;;
12425;SDS011;6277;49.824;9.562;2023-08-06T12:27:08;1.65;;;0.00;;
12425;SDS011;6277;49.824;9.562;2023-08-06T12:29:34;0.35;;;0.10;;
12425;SDS011;6277;49.824;9.562;2023-08-06T12:31:59;0.70;;;0.10;;
12425;SDS011;6277;49.824;9.562;2023-08-06T12:34:25;0.10;;;0.10;;
12425;SDS011;6277;49.824;9.562;2023-08-06T12:36:50;1.20;;;0.10;;
12425;SDS011;6277;49.824;9.562;2023-08-06T12:39:16;0.10;;;0.10;;
12425;SDS011;6277;49.824;9.562;2023-08-06T12:41:41;0.68;;;0.20;;
12425;SDS011;6277;49.824;9.562;2023-08-06T12:44:08;0.10;;;0.10;;
12425;SDS011;6277;49.824;9.562;2023-08-06T12:46:34;0.20;;;0.10;;
12425;SDS011;6277;49.824;9.562;2023-08-06T12:48:59;1.48;;;0.10;;
12425;SDS011;6277;49.824;9.562;2023-08-06T12:51:25;0.00;;;0.00;;
12425;SDS011;6277;49.824;9.562;2023-08-06T12:53:50;0.20;;;0.05;;
12425;SDS011;6277;49.824;9.562;2023-08-06T12:56:16;0.00;;;0.00;;
12425;SDS011;6277;49.824;9.562;2023-08-06T12:58:41;0.15;;;0.10;;
12425;SDS011;6277;49.824;9.562;2023-08-06T13:01:07;0.00;;;0.00;;
12425;SDS011;6277;49.824;9.562;2023-08-06T13:03:33;0.30;;;0.00;;
12425;SDS011;6277;49.824;9.562;2023-08-06T13:05:58;0.05;;;0.00;;
12425;SDS011;6277;49.824;9.562;2023-08-06T13:08:24;0.10;;;0.10;;
12425;SDS011;6277;49.824;9.562;2023-08-06T13:10:50;0.77;;;0.10;;
12425;SDS011;6277;49.824;9.562;2023-08-06T13:13:15;0.80;;;0.10;;
12425;SDS011;6277;49.824;9.562;2023-08-06T13:15:41;0.10;;;0.10;;
12425;SDS011;6277;49.824;9.562;2023-08-06T13:18:06;0.25;;;0.10;;
12425;SDS011;6277;49.824;9.562;2023-08-06T13:20:32;0.17;;;0.10;;
12425;SDS011;6277;49.824;9.562;2023-08-06T13:22:58;0.20;;;0.10;;
12425;SDS011;6277;49.824;9.562;2023-08-06T13:25:26;0.10;;;0.10;;
12425;SDS011;6277;49.824;9.562;2023-08-06T13:27:52;0.10;;;0.10;;
12425;SDS011;6277;49.824;9.562;2023-08-06T13:30:17;0.10;;;0.10;;
12425;SDS011;6277;49.824;9.562;2023-08-06T13:32:43;0.25;;;0.10;;
12425;SDS011;6277;49.824;9.562;2023-08-06T13:35:09;0.10;;;0.10;;
12425;SDS011;6277;49.824;9.562;2023-08-06T13:37:35;0.13;;;0.10;;
12425;SDS011;6277;49.824;9.562;2023-08-06T13:40:01;0.43;;;0.20;;
12425;SDS011;6277;49.824;9.562;2023-08-06T13:42:27;1.52;;;0.10;;
12425;SDS011;6277;49.824;9.562;2023-08-06T13:44:54;0.10;;;0.10;;
12425;SDS011;6277;49.824;9.562;2023-08-06T13:47:27;0.25;;;0.17;;
12425;SDS011;6277;49.824;9.562;2023-08-06T13:49:52;0.35;;;0.20;;
12425;SDS011;6277;49.824;9.562;2023-08-06T13:52:18;0.38;;;0.20;;
12425;SDS011;6277;49.824;9.562;2023-08-06T13:54:43;0.40;;;0.20;;
12425;SDS011;6277;49.824;9.562;2023-08-06T13:57:09;0.20;;;0.20;;
12425;SDS011;6277;49.824;9.562;2023-08-06T13:59:34;0.20;;;0.20;;
12425;SDS011;6277;49.824;9.562;2023-08-06T14:02:00;0.63;;;0.30;;
12425;SDS011;6277;49.824;9.562;2023-08-06T14:04:26;0.30;;;0.30;;
12425;SDS011;6277;49.824;9.562;2023-08-06T14:06:51;0.60;;;0.20;;
12425;SDS011;6277;49.824;9.562;2023-08-06T14:09:17;0.32;;;0.22;;
12425;SDS011;6277;49.824;9.562;2023-08-06T14:11:43;0.20;;;0.20;;
12425;SDS011;6277;49.824;9.562;2023-08-06T14:14:10;0.85;;;0.40;;
12425;SDS011;6277;49.824;9.562;2023-08-06T14:16:36;0.40;;;0.20;;
12425;SDS011;6277;49.824;9.562;2023-08-06T14:19:01;1.20;;;0.45;;
12425;SDS011;6277;49.824;9.562;2023-08-06T14:21:27;0.20;;;0.17;;
12425;SDS011;6277;49.824;9.562;2023-08-06T14:23:53;0.68;;;0.20;;
12425;SDS011;6277;49.824;9.562;2023-08-06T14:26:18;0.22;;;0.22;;
12425;SDS011;6277;49.824;9.562;2023-08-06T14:28:44;0.50;;;0.30;;
12425;SDS011;6277;49.824;9.562;2023-08-06T14:31:10;0.60;;;0.30;;
12425;SDS011;6277;49.824;9.562;2023-08-06T14:33:36;1.20;;;0.30;;
12425;SDS011;6277;49.824;9.562;2023-08-06T14:36:02;0.20;;;0.20;;
12425;SDS011;6277;49.824;9.562;2023-08-06T14:38:28;0.30;;;0.20;;
12425;SDS011;6277;49.824;9.562;2023-08-06T14:40:53;0.93;;;0.40;;
12425;SDS011;6277;49.824;9.562;2023-08-06T14:43:19;0.75;;;0.30;;
12425;SDS011;6277;49.824;9.562;2023-08-06T14:45:44;0.63;;;0.30;;
12425;SDS011;6277;49.824;9.562;2023-08-06T14:48:10;1.35;;;0.40;;
12425;SDS011;6277;49.824;9.562;2023-08-06T14:50:36;1.35;;;0.35;;
12425;SDS011;6277;49.824;9.562;2023-08-06T14:53:03;0.98;;;0.30;;
12425;SDS011;6277;49.824;9.562;2023-08-06T14:55:29;0.30;;;0.20;;
12425;SDS011;6277;49.824;9.562;2023-08-06T14:57:55;0.63;;;0.40;;
12425;SDS011;6277;49.824;9.562;2023-08-06T15:00:20;0.38;;;0.20;;
12425;SDS011;6277;49.824;9.562;2023-08-06T15:02:46;0.70;;;0.20;;
12425;SDS011;6277;49.824;9.562;2023-08-06T15:05:12;0.40;;;0.20;;
12425;SDS011;6277;49.824;9.562;2023-08-06T15:07:37;0.20;;;0.20;;
12425;SDS011;6277;49.824;9.562;2023-08-06T15:10:06;0.52;;;0.20;;
12425;SDS011;6277;49.824;9.562;2023-08-06T15:12:32;0.32;;;0.20;;
12425;SDS011;6277;49.824;9.562;2023-08-06T15:14:58;0.63;;;0.30;;
12425;SDS011;6277;49.824;9.562;2023-08-06T15:17:25;0.95;;;0.28;;
12425;SDS011;6277;49.824;9.562;2023-08-06T15:19:51;0.35;;;0.25;;